Time;durP1;ratioP1;P1;durP2;ratioP2;P2;SDS_P1;SDS_P2;PMS_P1;PMS_P2;Temp;Humidity;BMP_temperature;BMP_pressure;BME280_temperature;BME280_humidity;BME280_pressure;Samples;Min_cycle;Max_cycle;Signal;HPM_P1;HPM_P2
2021/09/18 00:00:12;;;;;;;;;;;;;;;;;;2088213;28;19921;-45
2021/09/18 00:01:13;;;;;;;;;;;;;;;;;;2089495;28;19928;-44
2021/09/18 00:02:14;;;;;;;;;;;;;;;;;;2088526;28;20270;-45
2021/09/18 00:03:15;;;;;;;;;;;;;;;;;;2087900;28;20380;-45
2021/09/18 00:04:16;;;;;;;;;;;;;;;;;;2089514;28;19967;-45
2021/09/18 00:05:16;;;;;;;;;;;;;;;;;;2087488;28;19921;-45
2021/09/18 00:06:17;;;;;;;;;;;;;;;;;;2088959;28;19970;-45
2021/09/18 00:07:18;;;;;;;;;;;;;;;;;;2089602;28;19920;-45
2021/09/18 00:08:19;;;;;;;;;;;;;;;;;;2087187;28;19921;-45
2021/09/18 00:09:20;;;;;;;;;;;;;;;;;;2089320;28;20332;-45
2021/09/18 00:10:20;;;;;;;;;;;;;;;;;;2089360;28;19920;-45
2021/09/18 00:11:21;;;;;;;;;;;;;;;;;;2087782;28;19921;-45
2021/09/18 00:12:22;;;;;;;;;;;;;;;;;;2081147;28;19991;-45
2021/09/18 00:13:23;;;;;;;;;;;;;;;;;;2081322;28;19921;-45
2021/09/18 00:14:24;;;;;;;;;;;;;;;;;;2086889;28;19985;-45
2021/09/18 00:15:25;;;;;;;;;;;;;;;;;;2081135;28;20320;-45
2021/09/18 00:16:25;;;;;;;;;;;;;;;;;;2081304;28;19979;-45
2021/09/18 00:17:26;;;;;;;;;;;;;;;;;;2087676;28;19967;-45
2021/09/18 00:18:27;;;;;;;;;;;;;;;;;;2082617;28;19921;-45
2021/09/18 00:19:28;;;;;;;;;;;;;;;;;;2082406;28;19925;-44
2021/09/18 00:20:29;;;;;;;;;;;;;;;;;;2088894;28;20066;-45
2021/09/18 00:21:30;;;;;;;;;;;;;;;;;;2090820;28;20374;-45
2021/09/18 00:22:30;;;;;;;;;;;;;;;;;;2090570;28;19932;-45
2021/09/18 00:23:32;;;;;;;;;;;;;;;;;;2087732;28;19921;-45
2021/09/18 00:24:32;;;;;;;;;;;;;;;;;;2082527;28;19925;-45
2021/09/18 00:25:33;;;;;;;;;;;;;;;;;;2083387;28;19925;-45
2021/09/18 00:26:34;;;;;;;;;;;;;;;;;;2088964;28;19927;-45
2021/09/18 00:27:35;;;;;;;;;;;;;;;;;;2090776;28;20019;-45
2021/09/18 00:28:37;;;;;;;;;;;;;;;;;;2090213;28;19975;-45
2021/09/18 00:29:38;;;;;;;;;;;;;;;;;;2088931;28;20437;-45
2021/09/18 00:30:39;;;;;;;;;;;;;;;;;;2090758;28;19925;-46
2021/09/18 00:31:40;;;;;;;;;;;;;;;;;;2090103;28;19951;-45
2021/09/18 00:32:41;;;;;;;;;;;;;;;;;;2089213;28;19921;-45
2021/09/18 00:33:41;;;;;;;;;;;;;;;;;;2090905;28;19921;-45
2021/09/18 00:34:42;;;;;;;;;;;;;;;;;;2090015;28;20274;-45
2021/09/18 00:35:43;;;;;;;;;;;;;;;;;;2089263;28;19921;-45
2021/09/18 00:36:44;;;;;;;;;;;;;;;;;;2090834;28;19925;-45
2021/09/18 00:37:45;;;;;;;;;;;;;;;;;;2089686;28;19986;-45
2021/09/18 00:38:46;;;;;;;;;;;;;;;;;;2089434;28;20322;-45
2021/09/18 00:39:46;;;;;;;;;;;;;;;;;;2090712;28;20429;-45
2021/09/18 00:40:47;;;;;;;;;;;;;;;;;;2089640;28;20007;-45
2021/09/18 00:41:48;;;;;;;;;;;;;;;;;;2089431;28;19921;-45
2021/09/18 00:42:49;;;;;;;;;;;;;;;;;;2090679;28;19921;-45
2021/09/18 00:43:50;;;;;;;;;;;;;;;;;;2089744;28;19928;-60
2021/09/18 00:44:51;;;;;;;;;;;;;;;;;;2083822;28;19927;-60
2021/09/18 00:45:52;;;;;;;;;;;;;;;;;;2082433;28;19925;-60
2021/09/18 00:46:52;;;;;;;;;;;;;;;;;;2086248;28;19921;-60
2021/09/18 00:47:54;;;;;;;;;;;;;;;;;;2090691;28;19924;-60
2021/09/18 00:48:54;;;;;;;;;;;;;;;;;;2090645;28;19920;-64
2021/09/18 00:49:55;;;;;;;;;;;;;;;;;;2089492;28;19963;-60
2021/09/18 00:50:56;;;;;;;;;;;;;;;;;;2080999;28;20393;-60
2021/09/18 00:51:57;;;;;;;;;;;;;;;;;;2082578;28;20274;-60
2021/09/18 00:52:57;;;;;;;;;;;;;;;;;;2087287;28;19932;-60
2021/09/18 00:53:58;;;;;;;;;;;;;;;;;;2090612;28;19970;-60
2021/09/18 00:54:59;;;;;;;;;;;;;;;;;;2090809;28;19921;-60
2021/09/18 00:56:00;;;;;;;;;;;;;;;;;;2088329;28;19943;-60
2021/09/18 00:57:01;;;;;;;;;;;;;;;;;;2090971;28;20301;-45
2021/09/18 00:58:02;;;;;;;;;;;;;;;;;;2090150;28;20309;-45
2021/09/18 00:59:05;;;;;;;;;;;;;;;;;;2087866;28;19921;-45
2021/09/18 01:00:06;;;;;;;;;;;;;;;;;;2090583;28;19930;-45
2021/09/18 01:01:07;;;;;;;;;;;;;;;;;;2090146;28;19925;-45
2021/09/18 01:02:08;;;;;;;;;;;;;;;;;;2085033;28;19921;-45
2021/09/18 01:03:09;;;;;;;;;;;;;;;;;;2082338;28;20365;-45
2021/09/18 01:04:10;;;;;;;;;;;;;;;;;;2085243;28;19921;-45
2021/09/18 01:05:11;;;;;;;;;;;;;;;;;;2084826;28;19921;-45
2021/09/18 01:06:11;;;;;;;;;;;;;;;;;;2082293;28;19921;-45
2021/09/18 01:07:12;;;;;;;;;;;;;;;;;;2085994;28;19952;-45
2021/09/18 01:08:13;;;;;;;;;;;;;;;;;;2089188;28;19921;-45
2021/09/18 01:09:14;;;;;;;;;;;;;;;;;;2090521;28;20337;-45
2021/09/18 01:10:14;;;;;;;;;;;;;;;;;;2089480;28;19921;-45
2021/09/18 01:11:15;;;;;;;;;;;;;;;;;;2083670;28;19925;-45
2021/09/18 01:12:16;;;;;;;;;;;;;;;;;;2082238;28;19925;-45
2021/09/18 01:13:19;;;;;;;;;;;;;;;;;;2085988;28;19920;-45
2021/09/18 01:14:20;;;;;;;;;;;;;;;;;;2089618;28;20015;-45
2021/09/18 01:15:21;;;;;;;;;;;;;;;;;;2090453;28;19974;-45
2021/09/18 01:16:21;;;;;;;;;;;;;;;;;;2088437;28;19998;-44
2021/09/18 01:17:22;;;;;;;;;;;;;;;;;;2090449;28;20427;-45
2021/09/18 01:18:23;;;;;;;;;;;;;;;;;;2090496;28;19943;-45
2021/09/18 01:19:24;;;;;;;;;;;;;;;;;;2088234;28;19927;-45
2021/09/18 01:20:25;;;;;;;;;;;;;;;;;;2090357;28;20114;-45
2021/09/18 01:21:25;;;;;;;;;;;;;;;;;;2090475;28;19932;-45
2021/09/18 01:22:26;;;;;;;;;;;;;;;;;;2088136;28;19971;-45
2021/09/18 01:23:27;;;;;;;;;;;;;;;;;;2090520;28;19920;-45
2021/09/18 01:24:28;;;;;;;;;;;;;;;;;;2089960;28;19975;-45
2021/09/18 01:25:29;;;;;;;;;;;;;;;;;;2088630;28;19931;-45
2021/09/18 01:26:29;;;;;;;;;;;;;;;;;;2090534;28;19921;-45
2021/09/18 01:27:30;;;;;;;;;;;;;;;;;;2090161;28;19921;-45
2021/09/18 01:28:31;;;;;;;;;;;;;;;;;;2088356;28;20366;-45
2021/09/18 01:29:32;;;;;;;;;;;;;;;;;;2090234;28;19921;-45
2021/09/18 01:30:33;;;;;;;;;;;;;;;;;;2089943;28;20340;-45
2021/09/18 01:31:33;;;;;;;;;;;;;;;;;;2087597;28;19929;-44
2021/09/18 01:32:34;;;;;;;;;;;;;;;;;;2090474;28;20389;-45
2021/09/18 01:33:35;;;;;;;;;;;;;;;;;;2089962;28;19932;-45
2021/09/18 01:34:36;;;;;;;;;;;;;;;;;;2086264;28;19925;-45
2021/09/18 01:35:37;;;;;;;;;;;;;;;;;;2082070;28;19921;-45
2021/09/18 01:36:38;;;;;;;;;;;;;;;;;;2083832;28;19921;-44
2021/09/18 01:37:39;;;;;;;;;;;;;;;;;;2088828;28;19920;-45
2021/09/18 01:38:39;;;;;;;;;;;;;;;;;;2090301;28;19946;-45
2021/09/18 01:39:40;;;;;;;;;;;;;;;;;;2089682;28;19975;-45
2021/09/18 01:40:41;;;;;;;;;;;;;;;;;;2085096;28;20289;-45
2021/09/18 01:41:42;;;;;;;;;;;;;;;;;;2082093;28;20363;-45
2021/09/18 01:42:42;;;;;;;;;;;;;;;;;;2084938;28;20366;-45
2021/09/18 01:43:43;;;;;;;;;;;;;;;;;;2089031;28;20301;-45
2021/09/18 01:44:44;;;;;;;;;;;;;;;;;;2090349;28;19924;-44
2021/09/18 01:45:45;;;;;;;;;;;;;;;;;;2089394;28;19925;-45
2021/09/18 01:46:46;;;;;;;;;;;;;;;;;;2088968;28;19931;-44
2021/09/18 01:47:47;;;;;;;;;;;;;;;;;;2090418;28;20404;-45
2021/09/18 01:48:47;;;;;;;;;;;;;;;;;;2089114;28;19936;-45
2021/09/18 01:49:48;;;;;;;;;;;;;;;;;;2089129;28;19920;-45
2021/09/18 01:50:51;;;;;;;;;;;;;;;;;;2085157;28;19921;-45
2021/09/18 01:51:56;;;;;;;;;;;;;;;;;;2085663;28;19924;-45
2021/09/18 01:52:56;;;;;;;;;;;;;;;;;;2090162;28;20362;-46
2021/09/18 01:53:57;;;;;;;;;;;;;;;;;;2090306;28;19921;-45
2021/09/18 01:54:58;;;;;;;;;;;;;;;;;;2087834;28;20358;-45
2021/09/18 01:55:59;;;;;;;;;;;;;;;;;;2090163;28;19921;-45
2021/09/18 01:57:00;;;;;;;;;;;;;;;;;;2090392;28;20361;-44
2021/09/18 01:58:01;;;;;;;;;;;;;;;;;;2088084;28;19920;-45
2021/09/18 01:59:02;;;;;;;;;;;;;;;;;;2081985;28;20183;-45
2021/09/18 02:00:02;;;;;;;;;;;;;;;;;;2081937;28;20400;-45
2021/09/18 02:01:03;;;;;;;;;;;;;;;;;;2088967;28;19927;-45
2021/09/18 02:02:04;;;;;;;;;;;;;;;;;;2090319;28;19928;-44
2021/09/18 02:03:05;;;;;;;;;;;;;;;;;;2089720;28;19928;-45
2021/09/18 02:04:06;;;;;;;;;;;;;;;;;;2087299;28;20396;-45
2021/09/18 02:05:07;;;;;;;;;;;;;;;;;;2081884;28;19925;-45
2021/09/18 02:06:08;;;;;;;;;;;;;;;;;;2082539;28;19928;-45
2021/09/18 02:07:10;;;;;;;;;;;;;;;;;;2086789;28;19974;-45
2021/09/18 02:08:11;;;;;;;;;;;;;;;;;;2081989;28;19921;-45
2021/09/18 02:09:12;;;;;;;;;;;;;;;;;;2083570;28;20337;-44
2021/09/18 02:10:13;;;;;;;;;;;;;;;;;;2083896;28;19921;-45
2021/09/18 02:11:14;;;;;;;;;;;;;;;;;;2082039;28;19925;-45
2021/09/18 02:12:14;;;;;;;;;;;;;;;;;;2085586;28;19927;-46
2021/09/18 02:13:15;;;;;;;;;;;;;;;;;;2089149;28;20281;-44
2021/09/18 02:14:16;;;;;;;;;;;;;;;;;;2090089;28;19920;-45
2021/09/18 02:15:17;;;;;;;;;;;;;;;;;;2089100;28;19936;-45
2021/09/18 02:16:17;;;;;;;;;;;;;;;;;;2083152;28;19927;-44
2021/09/18 02:17:18;;;;;;;;;;;;;;;;;;2081880;28;20401;-44
2021/09/18 02:18:19;;;;;;;;;;;;;;;;;;2085444;28;19920;-44
2021/09/18 02:19:20;;;;;;;;;;;;;;;;;;2090208;28;20369;-44
2021/09/18 02:20:21;;;;;;;;;;;;;;;;;;2090027;28;20046;-45
2021/09/18 02:21:22;;;;;;;;;;;;;;;;;;2088933;28;19974;-45
2021/09/18 02:22:22;;;;;;;;;;;;;;;;;;2081998;28;19927;-45
2021/09/18 02:23:23;;;;;;;;;;;;;;;;;;2082000;28;19920;-45
2021/09/18 02:24:39;;;;;;;;;;;;;;;;;;2055732;28;19922;-45
2021/09/18 02:25:39;;;;;;;;;;;;;;;;;;2056390;28;20383;-45
2021/09/18 02:26:40;;;;;;;;;;;;;;;;;;2055833;28;19926;-45
2021/09/18 02:27:41;;;;;;;;;;;;;;;;;;2054736;28;20453;-45
2021/09/18 02:28:42;;;;;;;;;;;;;;;;;;2056583;28;19922;-45
2021/09/18 02:29:43;;;;;;;;;;;;;;;;;;2054485;28;19926;-45
2021/09/18 02:30:44;;;;;;;;;;;;;;;;;;2055800;28;19922;-45
2021/09/18 02:31:44;;;;;;;;;;;;;;;;;;2056559;28;19932;-44
2021/09/18 02:32:45;;;;;;;;;;;;;;;;;;2055599;28;19926;-45
2021/09/18 02:33:46;;;;;;;;;;;;;;;;;;2056022;28;19945;-45
2021/09/18 02:34:47;;;;;;;;;;;;;;;;;;2056528;28;19929;-44
2021/09/18 02:35:47;;;;;;;;;;;;;;;;;;2055562;28;19933;-45
2021/09/18 02:36:48;;;;;;;;;;;;;;;;;;2055936;28;19978;-45
2021/09/18 02:37:49;;;;;;;;;;;;;;;;;;2056427;28;19928;-45
2021/09/18 02:38:50;;;;;;;;;;;;;;;;;;2055416;28;19964;-45
2021/09/18 02:39:50;;;;;;;;;;;;;;;;;;2055521;28;19929;-45
2021/09/18 02:40:52;;;;;;;;;;;;;;;;;;2056403;28;19921;-45
2021/09/18 02:41:53;;;;;;;;;;;;;;;;;;2055520;28;20012;-45
2021/09/18 02:42:53;;;;;;;;;;;;;;;;;;2056101;28;19930;-45
2021/09/18 02:43:54;;;;;;;;;;;;;;;;;;2056443;28;19922;-45
2021/09/18 02:44:55;;;;;;;;;;;;;;;;;;2054166;28;19922;-45
2021/09/18 02:45:56;;;;;;;;;;;;;;;;;;2056318;28;19925;-45
2021/09/18 02:46:57;;;;;;;;;;;;;;;;;;2056414;28;19926;-45
2021/09/18 02:47:58;;;;;;;;;;;;;;;;;;2053857;28;19922;-45
2021/09/18 02:48:59;;;;;;;;;;;;;;;;;;2056397;28;19922;-45
2021/09/18 02:50:00;;;;;;;;;;;;;;;;;;2055887;28;19988;-45
2021/09/18 02:51:01;;;;;;;;;;;;;;;;;;2054025;28;19922;-45
2021/09/18 02:52:01;;;;;;;;;;;;;;;;;;2056403;28;20388;-45
2021/09/18 02:53:02;;;;;;;;;;;;;;;;;;2055998;28;20419;-45
2021/09/18 02:54:03;;;;;;;;;;;;;;;;;;2055378;28;19921;-45
2021/09/18 02:55:04;;;;;;;;;;;;;;;;;;2056311;28;20014;-45
2021/09/18 02:56:04;;;;;;;;;;;;;;;;;;2055755;28;19921;-45
2021/09/18 02:57:06;;;;;;;;;;;;;;;;;;2055624;28;20024;-45
2021/09/18 02:58:07;;;;;;;;;;;;;;;;;;2056367;28;19926;-45
2021/09/18 02:59:08;;;;;;;;;;;;;;;;;;2055710;28;19922;-45
2021/09/18 03:00:09;;;;;;;;;;;;;;;;;;2054634;28;19922;-45
2021/09/18 03:01:09;;;;;;;;;;;;;;;;;;2056289;28;19926;-45
2021/09/18 03:02:11;;;;;;;;;;;;;;;;;;2059268;28;20015;-45
2021/09/18 03:03:12;;;;;;;;;;;;;;;;;;2084985;28;20352;-45
2021/09/18 03:04:13;;;;;;;;;;;;;;;;;;2081600;28;20350;-45
2021/09/18 03:05:14;;;;;;;;;;;;;;;;;;2084200;28;19921;-45
2021/09/18 03:06:14;;;;;;;;;;;;;;;;;;2083390;28;19921;-45
2021/09/18 03:07:15;;;;;;;;;;;;;;;;;;2081654;28;19921;-45
2021/09/18 03:08:16;;;;;;;;;;;;;;;;;;2084728;28;19928;-45
2021/09/18 03:09:17;;;;;;;;;;;;;;;;;;2083995;28;20366;-45
2021/09/18 03:10:17;;;;;;;;;;;;;;;;;;2081474;28;19921;-46
2021/09/18 03:11:18;;;;;;;;;;;;;;;;;;2085309;28;19921;-45
2021/09/18 03:12:19;;;;;;;;;;;;;;;;;;2089411;28;20332;-45
2021/09/18 03:13:20;;;;;;;;;;;;;;;;;;2089847;28;19975;-45
2021/09/18 03:14:20;;;;;;;;;;;;;;;;;;2088083;28;20413;-45
2021/09/18 03:15:21;;;;;;;;;;;;;;;;;;2088536;28;20381;-45
2021/09/18 03:16:22;;;;;;;;;;;;;;;;;;2089720;28;19989;-45
2021/09/18 03:17:23;;;;;;;;;;;;;;;;;;2087730;28;19951;-45
2021/09/18 03:18:24;;;;;;;;;;;;;;;;;;2089709;28;19927;-45
2021/09/18 03:19:24;;;;;;;;;;;;;;;;;;2089721;28;19920;-45
2021/09/18 03:20:25;;;;;;;;;;;;;;;;;;2087426;28;19927;-45
2021/09/18 03:21:26;;;;;;;;;;;;;;;;;;2089642;28;19979;-45
2021/09/18 03:22:27;;;;;;;;;;;;;;;;;;2090025;28;20281;-45
2021/09/18 03:23:28;;;;;;;;;;;;;;;;;;2087481;28;20393;-45
2021/09/18 03:24:29;;;;;;;;;;;;;;;;;;2081358;28;20398;-46
2021/09/18 03:25:30;;;;;;;;;;;;;;;;;;2081412;28;19921;-45
2021/09/18 03:26:31;;;;;;;;;;;;;;;;;;2086983;28;20374;-45
2021/09/18 03:27:32;;;;;;;;;;;;;;;;;;2089821;28;20367;-45
2021/09/18 03:28:32;;;;;;;;;;;;;;;;;;2089247;28;19970;-45
2021/09/18 03:29:33;;;;;;;;;;;;;;;;;;2087686;28;19973;-45
2021/09/18 03:30:34;;;;;;;;;;;;;;;;;;2089551;28;19977;-45
2021/09/18 03:31:35;;;;;;;;;;;;;;;;;;2089242;28;19924;-45
2021/09/18 03:32:36;;;;;;;;;;;;;;;;;;2087618;28;20072;-45
2021/09/18 03:33:39;;;;;;;;;;;;;;;;;;2089672;28;19920;-45
2021/09/18 03:34:39;;;;;;;;;;;;;;;;;;2089150;28;19927;-45
2021/09/18 03:35:42;;;;;;;;;;;;;;;;;;2085793;28;19921;-45
2021/09/18 03:36:43;;;;;;;;;;;;;;;;;;2081338;28;20306;-45
2021/09/18 03:37:44;;;;;;;;;;;;;;;;;;2083191;28;19931;-45
2021/09/18 03:38:44;;;;;;;;;;;;;;;;;;2084367;28;20134;-45
2021/09/18 03:39:45;;;;;;;;;;;;;;;;;;2081374;28;19921;-45
2021/09/18 03:40:46;;;;;;;;;;;;;;;;;;2083845;28;20094;-45
2021/09/18 03:41:47;;;;;;;;;;;;;;;;;;2087972;28;19920;-45
2021/09/18 03:42:48;;;;;;;;;;;;;;;;;;2089573;28;19921;-45
2021/09/18 03:43:48;;;;;;;;;;;;;;;;;;2088675;28;20052;-45
2021/09/18 03:44:49;;;;;;;;;;;;;;;;;;2084298;28;19922;-45
2021/09/18 03:45:51;;;;;;;;;;;;;;;;;;2081394;28;19920;-45
2021/09/18 03:46:52;;;;;;;;;;;;;;;;;;2084880;28;20336;-45
2021/09/18 03:47:53;;;;;;;;;;;;;;;;;;2088103;28;19921;-45
2021/09/18 03:48:54;;;;;;;;;;;;;;;;;;2089524;28;19936;-45
2021/09/18 03:49:55;;;;;;;;;;;;;;;;;;2088096;28;19975;-45
2021/09/18 03:50:55;;;;;;;;;;;;;;;;;;2082734;28;19921;-45
2021/09/18 03:51:56;;;;;;;;;;;;;;;;;;2081747;28;20361;-45
2021/09/18 03:52:57;;;;;;;;;;;;;;;;;;2087192;28;19921;-45
2021/09/18 03:53:58;;;;;;;;;;;;;;;;;;2089883;28;19920;-45
2021/09/18 03:54:59;;;;;;;;;;;;;;;;;;2091058;28;19920;-45
2021/09/18 03:56:00;;;;;;;;;;;;;;;;;;2088401;28;19924;-46
2021/09/18 03:57:01;;;;;;;;;;;;;;;;;;2082882;28;19927;-45
2021/09/18 03:58:01;;;;;;;;;;;;;;;;;;2083159;28;20168;-45
2021/09/18 03:59:02;;;;;;;;;;;;;;;;;;2089096;28;19927;-45
2021/09/18 04:00:03;;;;;;;;;;;;;;;;;;2091008;28;19970;-45
2021/09/18 04:01:04;;;;;;;;;;;;;;;;;;2090600;28;19974;-45
2021/09/18 04:02:05;;;;;;;;;;;;;;;;;;2088211;28;20390;-45
2021/09/18 04:03:06;;;;;;;;;;;;;;;;;;2091099;28;19947;-45
2021/09/18 04:04:07;;;;;;;;;;;;;;;;;;2090551;28;19969;-45
2021/09/18 04:05:08;;;;;;;;;;;;;;;;;;2089246;28;19968;-45
2021/09/18 04:06:08;;;;;;;;;;;;;;;;;;2091000;28;19929;-45
2021/09/18 04:07:09;;;;;;;;;;;;;;;;;;2090129;28;19928;-45
2021/09/18 04:08:10;;;;;;;;;;;;;;;;;;2089392;28;19928;-45
2021/09/18 04:09:11;;;;;;;;;;;;;;;;;;2090861;28;19928;-45
2021/09/18 04:10:12;;;;;;;;;;;;;;;;;;2090002;28;19921;-45
2021/09/18 04:11:12;;;;;;;;;;;;;;;;;;2085599;28;19962;-45
2021/09/18 04:12:13;;;;;;;;;;;;;;;;;;2082821;28;19944;-45
2021/09/18 04:13:14;;;;;;;;;;;;;;;;;;2085544;28;19974;-45
2021/09/18 04:14:15;;;;;;;;;;;;;;;;;;2085217;28;19921;-45
2021/09/18 04:15:16;;;;;;;;;;;;;;;;;;2082684;28;20136;-45
2021/09/18 04:16:19;;;;;;;;;;;;;;;;;;2086501;28;20123;-45
2021/09/18 04:17:20;;;;;;;;;;;;;;;;;;2084452;28;19921;-45
2021/09/18 04:18:21;;;;;;;;;;;;;;;;;;2082622;28;19921;-45
2021/09/18 04:19:22;;;;;;;;;;;;;;;;;;2086360;28;19924;-45
2021/09/18 04:20:22;;;;;;;;;;;;;;;;;;2090281;28;19920;-45
2021/09/18 04:21:23;;;;;;;;;;;;;;;;;;2090987;28;19921;-45
2021/09/18 04:22:24;;;;;;;;;;;;;;;;;;2089621;28;19929;-45
2021/09/18 04:23:25;;;;;;;;;;;;;;;;;;2083261;28;19921;-45
2021/09/18 04:24:26;;;;;;;;;;;;;;;;;;2082518;28;19921;-45
2021/09/18 04:25:27;;;;;;;;;;;;;;;;;;2087087;28;19924;-45
2021/09/18 04:26:27;;;;;;;;;;;;;;;;;;2090705;28;20267;-45
2021/09/18 04:27:28;;;;;;;;;;;;;;;;;;2090737;28;19921;-45
2021/09/18 04:28:29;;;;;;;;;;;;;;;;;;2088455;28;19921;-45
2021/09/18 04:29:31;;;;;;;;;;;;;;;;;;2090715;28;19932;-45
2021/09/18 04:30:32;;;;;;;;;;;;;;;;;;2090862;28;20019;-45
2021/09/18 04:31:32;;;;;;;;;;;;;;;;;;2088480;28;19921;-44
2021/09/18 04:32:33;;;;;;;;;;;;;;;;;;2082538;28;19925;-45
2021/09/18 04:33:34;;;;;;;;;;;;;;;;;;2082483;28;19921;-45
2021/09/18 04:34:35;;;;;;;;;;;;;;;;;;2088970;28;19921;-45
2021/09/18 04:35:36;;;;;;;;;;;;;;;;;;2090758;28;19928;-45
2021/09/18 04:36:40;;;;;;;;;;;;;;;;;;2090242;28;19921;-44
2021/09/18 04:37:40;;;;;;;;;;;;;;;;;;2088091;28;19929;-44
2021/09/18 04:38:42;;;;;;;;;;;;;;;;;;2090714;28;19927;-45
2021/09/18 04:39:42;;;;;;;;;;;;;;;;;;2090256;28;19928;-44
2021/09/18 04:40:43;;;;;;;;;;;;;;;;;;2088865;28;19921;-45
2021/09/18 04:41:44;;;;;;;;;;;;;;;;;;2090844;28;19924;-44
2021/09/18 04:42:45;;;;;;;;;;;;;;;;;;2089967;28;20267;-44
2021/09/18 04:43:45;;;;;;;;;;;;;;;;;;2086325;28;19921;-44
2021/09/18 04:44:46;;;;;;;;;;;;;;;;;;2082546;28;20301;-44
2021/09/18 04:45:47;;;;;;;;;;;;;;;;;;2084844;28;19920;-44
2021/09/18 04:46:48;;;;;;;;;;;;;;;;;;2085713;28;20329;-44
2021/09/18 04:47:49;;;;;;;;;;;;;;;;;;2082356;28;20403;-44
2021/09/18 04:48:49;;;;;;;;;;;;;;;;;;2084964;28;19921;-44
2021/09/18 04:49:50;;;;;;;;;;;;;;;;;;2089148;28;19921;-45
2021/09/18 04:50:51;;;;;;;;;;;;;;;;;;2089301;28;20292;-44
2021/09/18 04:51:52;;;;;;;;;;;;;;;;;;2089875;28;20362;-44
2021/09/18 04:52:53;;;;;;;;;;;;;;;;;;2089362;28;19989;-44
2021/09/18 04:53:53;;;;;;;;;;;;;;;;;;2090730;28;20449;-45
2021/09/18 04:54:55;;;;;;;;;;;;;;;;;;2089636;28;19920;-44
2021/09/18 04:55:56;;;;;;;;;;;;;;;;;;2083795;28;20011;-45
2021/09/18 04:56:59;;;;;;;;;;;;;;;;;;2082523;28;19921;-44
2021/09/18 04:58:00;;;;;;;;;;;;;;;;;;2086134;28;19928;-44
2021/09/18 04:59:02;;;;;;;;;;;;;;;;;;2090422;28;20370;-45
2021/09/18 05:00:03;;;;;;;;;;;;;;;;;;2090554;28;20271;-45
2021/09/18 05:01:04;;;;;;;;;;;;;;;;;;2088398;28;19928;-58
2021/09/18 05:02:05;;;;;;;;;;;;;;;;;;2082412;28;19932;-58
2021/09/18 05:03:07;;;;;;;;;;;;;;;;;;2081887;28;19921;-58
2021/09/18 05:04:08;;;;;;;;;;;;;;;;;;2087613;28;19921;-58
2021/09/18 05:05:09;;;;;;;;;;;;;;;;;;2090481;28;19920;-58
2021/09/18 05:06:10;;;;;;;;;;;;;;;;;;2090578;28;19924;-58
2021/09/18 05:07:10;;;;;;;;;;;;;;;;;;2088387;28;19927;-58
2021/09/18 05:08:12;;;;;;;;;;;;;;;;;;2090681;28;19921;-58
2021/09/18 05:09:12;;;;;;;;;;;;;;;;;;2090130;28;20046;-59
2021/09/18 05:10:13;;;;;;;;;;;;;;;;;;2088513;28;19920;-58
2021/09/18 05:11:14;;;;;;;;;;;;;;;;;;2090768;28;19952;-58
2021/09/18 05:12:15;;;;;;;;;;;;;;;;;;2090032;28;19928;-58
2021/09/18 05:13:16;;;;;;;;;;;;;;;;;;2086867;28;19969;-58
2021/09/18 05:14:17;;;;;;;;;;;;;;;;;;2082291;28;19921;-58
2021/09/18 05:15:18;;;;;;;;;;;;;;;;;;2083614;28;20015;-58
2021/09/18 05:16:19;;;;;;;;;;;;;;;;;;2088820;28;19925;-58
2021/09/18 05:17:20;;;;;;;;;;;;;;;;;;2090577;28;20293;-58
2021/09/18 05:18:20;;;;;;;;;;;;;;;;;;2089691;28;19927;-58
2021/09/18 05:19:21;;;;;;;;;;;;;;;;;;2086032;28;20282;-58
2021/09/18 05:20:22;;;;;;;;;;;;;;;;;;2082339;28;19928;-58
2021/09/18 05:21:23;;;;;;;;;;;;;;;;;;2084516;28;20333;-58
2021/09/18 05:22:24;;;;;;;;;;;;;;;;;;2085552;28;20367;-58
2021/09/18 05:23:24;;;;;;;;;;;;;;;;;;2082160;28;19921;-58
2021/09/18 05:24:27;;;;;;;;;;;;;;;;;;2085151;28;19920;-58
2021/09/18 05:25:27;;;;;;;;;;;;;;;;;;2088944;28;19969;-58
2021/09/18 05:26:28;;;;;;;;;;;;;;;;;;2090402;28;19974;-59
2021/09/18 05:27:29;;;;;;;;;;;;;;;;;;2089630;28;19920;-58
2021/09/18 05:28:31;;;;;;;;;;;;;;;;;;2089215;28;19921;-59
2021/09/18 05:29:31;;;;;;;;;;;;;;;;;;2090562;28;19924;-58
2021/09/18 05:30:32;;;;;;;;;;;;;;;;;;2088666;28;20290;-59
2021/09/18 05:31:33;;;;;;;;;;;;;;;;;;2089857;28;19927;-58
2021/09/18 05:32:34;;;;;;;;;;;;;;;;;;2090363;28;20278;-58
2021/09/18 05:33:35;;;;;;;;;;;;;;;;;;2089254;28;20297;-58
2021/09/18 05:34:36;;;;;;;;;;;;;;;;;;2082883;28;19921;-58
2021/09/18 05:35:37;;;;;;;;;;;;;;;;;;2082200;28;19925;-58
2021/09/18 05:36:37;;;;;;;;;;;;;;;;;;2087367;28;19921;-59
2021/09/18 05:37:38;;;;;;;;;;;;;;;;;;2082338;28;19921;-58
2021/09/18 05:38:39;;;;;;;;;;;;;;;;;;2082076;28;19921;-58
2021/09/18 05:39:40;;;;;;;;;;;;;;;;;;2087743;28;19921;-59
2021/09/18 05:40:43;;;;;;;;;;;;;;;;;;2082005;28;19921;-59
2021/09/18 05:41:43;;;;;;;;;;;;;;;;;;2082042;28;19932;-58
2021/09/18 05:42:44;;;;;;;;;;;;;;;;;;2087824;28;19921;-58
2021/09/18 05:43:45;;;;;;;;;;;;;;;;;;2082178;28;20301;-58
2021/09/18 05:44:46;;;;;;;;;;;;;;;;;;2082528;28;20413;-58
2021/09/18 05:45:47;;;;;;;;;;;;;;;;;;2088330;28;20002;-58
2021/09/18 05:46:48;;;;;;;;;;;;;;;;;;2090400;28;19921;-58
2021/09/18 05:47:48;;;;;;;;;;;;;;;;;;2089832;28;20275;-58
2021/09/18 05:48:49;;;;;;;;;;;;;;;;;;2088257;28;19928;-59
2021/09/18 05:49:50;;;;;;;;;;;;;;;;;;2090351;28;19927;-59
2021/09/18 05:50:51;;;;;;;;;;;;;;;;;;2085789;28;19956;-59
2021/09/18 05:51:52;;;;;;;;;;;;;;;;;;2088621;28;19920;-59
2021/09/18 05:52:53;;;;;;;;;;;;;;;;;;2090248;28;19928;-58
2021/09/18 05:53:54;;;;;;;;;;;;;;;;;;2089683;28;19974;-59
2021/09/18 05:54:54;;;;;;;;;;;;;;;;;;2088588;28;20254;-58
2021/09/18 05:55:55;;;;;;;;;;;;;;;;;;2090287;28;19950;-58
2021/09/18 05:56:56;;;;;;;;;;;;;;;;;;2089426;28;20325;-59
2021/09/18 05:57:57;;;;;;;;;;;;;;;;;;2085763;28;19925;-59
2021/09/18 05:58:58;;;;;;;;;;;;;;;;;;2082087;28;19921;-59
2021/09/18 05:59:58;;;;;;;;;;;;;;;;;;2084431;28;19920;-59
2021/09/18 06:00:59;;;;;;;;;;;;;;;;;;2088700;28;20281;-58
2021/09/18 06:02:00;;;;;;;;;;;;;;;;;;2090175;28;19921;-59
2021/09/18 06:03:01;;;;;;;;;;;;;;;;;;2089210;28;19921;-59
2021/09/18 06:04:02;;;;;;;;;;;;;;;;;;2088631;28;19920;-59
2021/09/18 06:05:03;;;;;;;;;;;;;;;;;;2090355;28;20270;-59
2021/09/18 06:06:04;;;;;;;;;;;;;;;;;;2089145;28;20371;-59
2021/09/18 06:07:05;;;;;;;;;;;;;;;;;;2089052;28;19920;-59
2021/09/18 06:08:06;;;;;;;;;;;;;;;;;;2090178;28;19927;-59
2021/09/18 06:09:06;;;;;;;;;;;;;;;;;;2088722;28;20298;-59
2021/09/18 06:10:07;;;;;;;;;;;;;;;;;;2089469;28;19928;-60
2021/09/18 06:11:09;;;;;;;;;;;;;;;;;;2090231;28;19920;-59
2021/09/18 06:12:10;;;;;;;;;;;;;;;;;;2088045;28;19921;-59
2021/09/18 06:13:11;;;;;;;;;;;;;;;;;;2089932;28;19951;-59
2021/09/18 06:14:12;;;;;;;;;;;;;;;;;;2090108;28;19921;-59
2021/09/18 06:15:12;;;;;;;;;;;;;;;;;;2088203;28;20175;-59
2021/09/18 06:16:13;;;;;;;;;;;;;;;;;;2081895;28;19921;-59
2021/09/18 06:17:14;;;;;;;;;;;;;;;;;;2081901;28;19928;-59
2021/09/18 06:18:15;;;;;;;;;;;;;;;;;;2086928;28;20274;-59
2021/09/18 06:19:18;;;;;;;;;;;;;;;;;;2090166;28;19924;-59
2021/09/18 06:20:19;;;;;;;;;;;;;;;;;;2090136;28;19920;-60
2021/09/18 06:21:20;;;;;;;;;;;;;;;;;;2087527;28;19928;-59
2021/09/18 06:22:21;;;;;;;;;;;;;;;;;;2081816;28;19927;-58
2021/09/18 06:23:22;;;;;;;;;;;;;;;;;;2081830;28;19921;-59
2021/09/18 06:24:23;;;;;;;;;;;;;;;;;;2088058;28;19927;-59
2021/09/18 06:25:23;;;;;;;;;;;;;;;;;;2090067;28;19920;-59
2021/09/18 06:26:24;;;;;;;;;;;;;;;;;;2089639;28;19928;-60
2021/09/18 06:27:25;;;;;;;;;;;;;;;;;;2086685;28;19921;-59
2021/09/18 06:28:26;;;;;;;;;;;;;;;;;;2081850;28;20000;-59
2021/09/18 06:29:27;;;;;;;;;;;;;;;;;;2082874;28;19925;-59
2021/09/18 06:30:28;;;;;;;;;;;;;;;;;;2088090;28;20012;-60
2021/09/18 06:31:29;;;;;;;;;;;;;;;;;;2089999;28;19931;-59
2021/09/18 06:32:29;;;;;;;;;;;;;;;;;;2089439;28;20123;-60
2021/09/18 06:33:30;;;;;;;;;;;;;;;;;;2085551;28;19929;-60
2021/09/18 06:34:31;;;;;;;;;;;;;;;;;;2081770;28;20417;-58
2021/09/18 06:35:32;;;;;;;;;;;;;;;;;;2083687;28;19925;-59
2021/09/18 06:36:33;;;;;;;;;;;;;;;;;;2088375;28;19975;-59
2021/09/18 06:37:34;;;;;;;;;;;;;;;;;;2089967;28;19933;-59
2021/09/18 06:38:35;;;;;;;;;;;;;;;;;;2089223;28;19921;-59
2021/09/18 06:39:36;;;;;;;;;;;;;;;;;;2088482;28;19921;-58
2021/09/18 06:40:37;;;;;;;;;;;;;;;;;;2089983;28;20007;-58
2021/09/18 06:41:37;;;;;;;;;;;;;;;;;;2088648;28;20377;-59
2021/09/18 06:42:38;;;;;;;;;;;;;;;;;;2088622;28;20328;-58
2021/09/18 06:43:39;;;;;;;;;;;;;;;;;;2090058;28;19921;-58
2021/09/18 06:44:41;;;;;;;;;;;;;;;;;;2088704;28;19921;-58
2021/09/18 06:45:42;;;;;;;;;;;;;;;;;;2088840;28;20332;-60
2021/09/18 06:46:43;;;;;;;;;;;;;;;;;;2090023;28;19921;-60
2021/09/18 06:47:43;;;;;;;;;;;;;;;;;;2087959;28;19974;-59
2021/09/18 06:48:44;;;;;;;;;;;;;;;;;;2089595;28;19929;-58
2021/09/18 06:49:45;;;;;;;;;;;;;;;;;;2089878;28;19928;-59
2021/09/18 06:50:46;;;;;;;;;;;;;;;;;;2086815;28;19921;-58
2021/09/18 06:51:46;;;;;;;;;;;;;;;;;;2089742;28;19932;-59
2021/09/18 06:52:47;;;;;;;;;;;;;;;;;;2089825;28;19920;-59
2021/09/18 06:53:48;;;;;;;;;;;;;;;;;;2087618;28;20385;-59
2021/09/18 06:54:49;;;;;;;;;;;;;;;;;;2089879;28;20011;-59
2021/09/18 06:55:50;;;;;;;;;;;;;;;;;;2089839;28;19942;-59